createdAt,value
2017-10-18T00:00:20.506Z,0.00
2017-10-18T00:01:20.486Z,0.00
2017-10-18T00:02:20.488Z,0.00
2017-10-18T00:03:20.453Z,0.00
2017-10-18T00:04:20.434Z,0.00
2017-10-18T00:05:20.412Z,0.00
2017-10-18T00:06:20.387Z,0.00
2017-10-18T00:07:20.401Z,0.00
2017-10-18T00:08:20.358Z,0.00
2017-10-18T00:09:20.357Z,0.00
2017-10-18T00:10:20.320Z,0.00
2017-10-18T00:11:20.306Z,0.00
2017-10-18T00:12:20.294Z,0.00
2017-10-18T00:13:20.277Z,0.00
2017-10-18T00:14:20.236Z,0.00
2017-10-18T00:15:20.230Z,0.00
2017-10-18T00:16:20.204Z,0.00
2017-10-18T00:17:20.192Z,0.00
2017-10-18T00:18:20.162Z,0.00
2017-10-18T00:19:20.168Z,0.00
2017-10-18T00:20:20.122Z,0.00
2017-10-18T00:21:20.114Z,0.00
2017-10-18T00:22:20.089Z,0.00
2017-10-18T00:23:20.068Z,0.00
2017-10-18T00:24:20.059Z,0.00
2017-10-18T00:25:20.036Z,0.00
2017-10-18T00:26:20.014Z,0.00
2017-10-18T00:27:19.993Z,0.00
2017-10-18T00:28:19.973Z,0.00
2017-10-18T00:29:19.958Z,0.00
2017-10-18T00:30:19.935Z,0.00
2017-10-18T00:31:19.928Z,0.00
2017-10-18T00:32:19.913Z,0.00
2017-10-18T00:33:19.880Z,0.00
2017-10-18T00:34:19.872Z,0.00
2017-10-18T00:35:19.845Z,0.00
2017-10-18T00:36:19.835Z,0.00
2017-10-18T00:37:19.803Z,0.00
2017-10-18T00:38:19.794Z,0.00
2017-10-18T00:39:19.767Z,0.00
2017-10-18T00:40:19.749Z,0.00
2017-10-18T00:41:19.734Z,0.00
2017-10-18T00:42:19.716Z,0.00
2017-10-18T00:43:19.689Z,0.00
2017-10-18T00:44:19.675Z,0.00
2017-10-18T00:45:19.653Z,0.00
2017-10-18T00:46:19.634Z,0.00
2017-10-18T00:47:19.617Z,0.00
2017-10-18T00:48:19.594Z,0.00
2017-10-18T00:49:19.576Z,0.00
2017-10-18T00:50:19.564Z,0.00
2017-10-18T00:51:19.545Z,0.00
2017-10-18T00:52:19.522Z,0.00
2017-10-18T00:53:19.501Z,0.00
2017-10-18T00:54:19.501Z,0.00
2017-10-18T00:55:19.465Z,0.00
2017-10-18T00:56:19.450Z,0.00
2017-10-18T00:57:19.428Z,0.00
2017-10-18T00:58:19.415Z,0.00
2017-10-18T00:59:19.385Z,0.00
2017-10-18T01:00:19.369Z,0.00
2017-10-18T01:01:19.349Z,0.00
2017-10-18T01:02:19.340Z,0.00
2017-10-18T01:03:19.306Z,0.00
2017-10-18T01:04:19.298Z,0.00
2017-10-18T01:05:19.312Z,0.00
2017-10-18T01:06:19.264Z,0.00
2017-10-18T01:07:19.233Z,0.00
2017-10-18T01:08:19.216Z,0.00
2017-10-18T01:09:19.197Z,0.00
2017-10-18T01:10:19.189Z,0.00
2017-10-18T01:11:19.165Z,0.00
2017-10-18T01:12:19.141Z,0.00
2017-10-18T01:13:19.117Z,0.00
2017-10-18T01:14:19.112Z,0.00
2017-10-18T01:15:19.092Z,0.00
2017-10-18T01:16:19.066Z,0.00
2017-10-18T01:17:19.050Z,0.00
2017-10-18T01:18:19.030Z,0.00
2017-10-18T01:19:19.009Z,0.00
2017-10-18T01:20:18.991Z,0.00
2017-10-18T01:21:18.972Z,0.00
2017-10-18T01:22:18.948Z,0.00
2017-10-18T01:23:18.933Z,0.00
2017-10-18T01:24:18.918Z,0.00
2017-10-18T01:25:18.894Z,0.00
2017-10-18T01:26:18.877Z,0.00
2017-10-18T01:27:18.853Z,0.00
2017-10-18T01:28:18.839Z,0.00
2017-10-18T01:29:18.817Z,0.00
2017-10-18T01:30:18.804Z,0.00
2017-10-18T01:31:18.781Z,0.00
2017-10-18T01:32:18.759Z,0.00
2017-10-18T01:33:18.747Z,0.00
2017-10-18T01:34:18.722Z,0.00
2017-10-18T01:35:18.702Z,0.00
2017-10-18T01:36:18.690Z,0.00
2017-10-18T01:37:18.665Z,0.00
2017-10-18T01:38:18.647Z,0.00
2017-10-18T01:39:18.619Z,0.00
2017-10-18T01:40:18.606Z,0.00
2017-10-18T01:41:18.591Z,0.00
2017-10-18T01:42:18.572Z,0.00
2017-10-18T01:43:18.565Z,0.00
2017-10-18T01:44:18.540Z,0.00
2017-10-18T01:45:18.511Z,0.00
2017-10-18T01:46:18.497Z,0.00
2017-10-18T01:47:18.470Z,0.00
2017-10-18T01:48:18.455Z,0.00
2017-10-18T01:49:18.441Z,0.00
2017-10-18T01:50:18.419Z,0.00
2017-10-18T01:51:18.399Z,0.00
2017-10-18T01:52:18.376Z,0.00
2017-10-18T01:53:18.353Z,0.00
2017-10-18T01:54:18.340Z,0.00
2017-10-18T01:55:18.328Z,0.00
2017-10-18T01:56:18.301Z,0.00
2017-10-18T01:57:18.291Z,0.00
2017-10-18T01:58:18.256Z,0.00
2017-10-18T01:59:18.243Z,0.00
2017-10-18T02:00:18.227Z,0.00
2017-10-18T02:01:18.204Z,0.00
2017-10-18T02:02:18.180Z,0.00
2017-10-18T02:03:18.162Z,0.00
2017-10-18T02:04:18.145Z,0.00
2017-10-18T02:05:18.124Z,0.00
2017-10-18T02:06:18.102Z,0.00
2017-10-18T02:07:18.086Z,0.00
2017-10-18T02:08:18.078Z,0.00
2017-10-18T02:09:18.053Z,0.00
2017-10-18T02:10:18.031Z,0.00
2017-10-18T02:11:18.008Z,0.00
2017-10-18T02:12:17.992Z,0.00
2017-10-18T02:13:17.970Z,0.00
2017-10-18T02:14:17.961Z,0.00
2017-10-18T02:15:17.934Z,0.00
2017-10-18T02:16:17.909Z,0.00
2017-10-18T02:17:17.898Z,0.00
2017-10-18T02:18:17.876Z,0.00
2017-10-18T02:19:17.864Z,0.00
2017-10-18T02:20:17.841Z,0.00
2017-10-18T02:21:17.822Z,0.00
2017-10-18T02:22:17.797Z,0.00
2017-10-18T02:23:17.776Z,0.00
2017-10-18T02:24:17.764Z,0.00
2017-10-18T02:25:17.751Z,0.00
2017-10-18T02:26:17.721Z,0.00
2017-10-18T02:27:17.706Z,0.00
2017-10-18T02:28:17.694Z,0.00
2017-10-18T02:29:17.662Z,0.00
2017-10-18T02:30:17.645Z,0.00
2017-10-18T02:31:17.639Z,0.00
2017-10-18T02:32:17.605Z,0.00
2017-10-18T02:33:17.588Z,0.00
2017-10-18T02:34:17.564Z,0.00
2017-10-18T02:35:17.558Z,0.00
2017-10-18T02:36:17.535Z,0.00
2017-10-18T02:37:17.519Z,0.00
2017-10-18T02:38:17.494Z,0.00
2017-10-18T02:39:17.474Z,0.00
2017-10-18T02:40:17.458Z,0.00
2017-10-18T02:41:17.429Z,0.00
2017-10-18T02:42:17.416Z,0.00
2017-10-18T02:43:17.393Z,0.00
2017-10-18T02:44:17.384Z,0.00
2017-10-18T02:45:17.354Z,0.00
2017-10-18T02:46:17.344Z,0.00
2017-10-18T02:47:17.321Z,0.00
2017-10-18T02:48:17.301Z,0.00
2017-10-18T02:49:17.277Z,0.00
2017-10-18T02:50:17.282Z,0.00
2017-10-18T02:51:17.239Z,0.00
2017-10-18T02:52:17.226Z,0.00
2017-10-18T02:53:17.202Z,0.00
2017-10-18T02:54:17.190Z,0.00
2017-10-18T02:55:17.163Z,0.00
2017-10-18T02:56:17.153Z,0.00
2017-10-18T02:57:17.123Z,0.00
2017-10-18T02:58:17.105Z,0.00
2017-10-18T02:59:17.086Z,0.00
2017-10-18T03:00:17.081Z,0.00
2017-10-18T03:01:17.059Z,0.00
2017-10-18T03:02:17.032Z,0.00
2017-10-18T03:03:17.009Z,0.00
2017-10-18T03:04:17.002Z,0.00
2017-10-18T03:05:16.975Z,0.00
2017-10-18T03:06:16.956Z,0.00
2017-10-18T03:07:16.934Z,0.00
2017-10-18T03:08:16.911Z,0.00
2017-10-18T03:09:16.888Z,0.00
2017-10-18T03:10:16.878Z,0.00
2017-10-18T03:11:16.851Z,0.00
2017-10-18T03:12:16.843Z,0.00
2017-10-18T03:13:16.818Z,0.00
2017-10-18T03:14:16.804Z,0.00
2017-10-18T03:15:16.779Z,0.00
2017-10-18T03:16:16.750Z,0.00
2017-10-18T03:17:16.736Z,0.00
2017-10-18T03:18:16.725Z,0.00
2017-10-18T03:19:16.705Z,0.00
2017-10-18T03:20:16.725Z,0.00
2017-10-18T03:21:16.661Z,0.00
2017-10-18T03:22:16.649Z,0.00
2017-10-18T03:23:16.634Z,0.00
2017-10-18T03:24:16.607Z,0.00
2017-10-18T03:25:16.589Z,0.00
2017-10-18T03:26:16.572Z,0.00
2017-10-18T03:27:16.548Z,0.00
2017-10-18T03:28:16.530Z,0.00
2017-10-18T03:29:16.510Z,0.00
2017-10-18T03:30:16.487Z,0.00
2017-10-18T03:31:16.475Z,0.00
2017-10-18T03:32:16.455Z,0.00
2017-10-18T03:33:16.435Z,0.00
2017-10-18T03:34:16.409Z,0.00
2017-10-18T03:35:16.397Z,0.00
2017-10-18T03:36:16.378Z,0.00
2017-10-18T03:37:16.360Z,0.00
2017-10-18T03:38:16.337Z,0.00
2017-10-18T03:39:16.316Z,0.00
2017-10-18T03:40:16.298Z,0.00
2017-10-18T03:41:16.274Z,0.00
2017-10-18T03:42:16.257Z,0.00
2017-10-18T03:43:16.242Z,0.00
2017-10-18T03:44:16.222Z,0.00
2017-10-18T03:45:16.214Z,0.00
2017-10-18T03:46:16.179Z,0.00
2017-10-18T03:47:16.171Z,0.00
2017-10-18T03:48:16.139Z,0.00
2017-10-18T03:49:16.121Z,0.00
2017-10-18T03:50:16.109Z,0.00
2017-10-18T03:51:16.085Z,0.00
2017-10-18T03:52:16.068Z,0.00
2017-10-18T03:53:16.053Z,0.00
2017-10-18T03:54:16.052Z,0.00
2017-10-18T03:55:16.017Z,0.00
2017-10-18T03:56:15.991Z,0.00
2017-10-18T03:57:15.970Z,0.00
2017-10-18T03:58:15.946Z,0.00
2017-10-18T03:59:15.930Z,0.00
2017-10-18T04:00:15.909Z,0.00
2017-10-18T04:01:15.886Z,0.00
2017-10-18T04:02:15.868Z,0.00
2017-10-18T04:03:15.847Z,0.00
2017-10-18T04:04:15.830Z,0.00
2017-10-18T04:05:15.810Z,0.00
2017-10-18T04:06:15.789Z,0.00
2017-10-18T04:07:15.771Z,0.00
2017-10-18T04:08:15.757Z,0.00
2017-10-18T04:09:15.744Z,0.00
2017-10-18T04:10:15.713Z,0.00
2017-10-18T04:11:15.689Z,0.00
2017-10-18T04:12:15.675Z,0.00
2017-10-18T04:13:15.657Z,0.00
2017-10-18T04:14:15.641Z,0.00
2017-10-18T04:15:15.611Z,0.00
2017-10-18T04:16:15.600Z,0.00
2017-10-18T04:17:15.583Z,0.00
2017-10-18T04:18:15.563Z,0.00
2017-10-18T04:19:15.534Z,0.00
2017-10-18T04:20:15.523Z,0.00
2017-10-18T04:21:15.503Z,0.00
2017-10-18T04:22:15.487Z,0.00
2017-10-18T04:23:15.462Z,0.00
2017-10-18T04:24:15.438Z,0.00
2017-10-18T04:25:15.421Z,0.00
2017-10-18T04:26:15.424Z,0.00
2017-10-18T04:27:15.389Z,0.00
2017-10-18T04:28:15.364Z,0.00
2017-10-18T04:29:15.343Z,0.00
2017-10-18T04:30:15.329Z,0.00
2017-10-18T04:31:15.303Z,0.00
2017-10-18T04:32:15.290Z,0.00
2017-10-18T04:33:15.259Z,0.00
2017-10-18T04:34:15.239Z,0.00
2017-10-18T04:35:15.226Z,0.00
2017-10-18T04:36:15.205Z,0.00
2017-10-18T04:37:15.183Z,0.00
2017-10-18T04:38:15.163Z,0.00
2017-10-18T04:39:15.143Z,0.00
2017-10-18T04:40:15.122Z,0.00
2017-10-18T04:41:15.108Z,0.00
2017-10-18T04:42:15.081Z,0.00
2017-10-18T04:43:15.061Z,0.00
2017-10-18T04:44:15.051Z,0.00
2017-10-18T04:45:15.024Z,0.00
2017-10-18T04:46:15.007Z,0.00
2017-10-18T04:47:14.984Z,0.00
2017-10-18T04:48:14.964Z,0.00
2017-10-18T04:49:14.946Z,0.00
2017-10-18T04:50:14.928Z,0.00
2017-10-18T04:51:14.910Z,0.00
2017-10-18T04:52:14.887Z,0.00
2017-10-18T04:53:14.868Z,0.00
2017-10-18T04:54:14.850Z,0.00
2017-10-18T04:55:14.830Z,0.00
2017-10-18T04:56:14.809Z,0.00
2017-10-18T04:57:14.789Z,0.00
2017-10-18T04:58:14.769Z,0.00
2017-10-18T04:59:14.755Z,0.00
2017-10-18T05:00:14.730Z,0.00
2017-10-18T05:01:14.712Z,0.00
2017-10-18T05:02:14.693Z,0.00
2017-10-18T05:03:14.672Z,0.00
2017-10-18T05:04:14.654Z,0.00
2017-10-18T05:05:14.639Z,0.00
2017-10-18T05:06:14.612Z,0.00
2017-10-18T05:07:14.594Z,0.00
2017-10-18T05:08:14.580Z,0.00
2017-10-18T05:09:14.556Z,0.00
2017-10-18T05:10:14.532Z,0.00
2017-10-18T05:11:14.521Z,0.00
2017-10-18T05:12:14.497Z,0.00
2017-10-18T05:13:14.477Z,0.00
2017-10-18T05:14:14.454Z,0.00
2017-10-18T05:15:14.438Z,0.00
2017-10-18T05:16:14.435Z,0.00
2017-10-18T05:17:14.398Z,0.00
2017-10-18T05:18:14.393Z,0.00
2017-10-18T05:19:14.356Z,0.00
2017-10-18T05:20:14.346Z,0.00
2017-10-18T05:21:14.315Z,0.00
2017-10-18T05:22:15.170Z,0.00
2017-10-18T05:23:14.276Z,0.00
2017-10-18T05:24:14.255Z,0.00
2017-10-18T05:25:14.244Z,4.00
2017-10-18T05:26:14.229Z,4.00
2017-10-18T05:27:14.205Z,0.00
2017-10-18T05:28:14.180Z,4.00
2017-10-18T05:29:14.163Z,4.00
2017-10-18T05:30:14.138Z,4.00
2017-10-18T05:31:14.123Z,4.00
2017-10-18T05:32:14.104Z,4.00
2017-10-18T05:33:14.083Z,12.00
2017-10-18T05:34:14.061Z,12.00
2017-10-18T05:35:14.045Z,12.00
2017-10-18T05:36:14.030Z,12.00
2017-10-18T05:37:14.009Z,16.00
2017-10-18T05:38:13.989Z,20.00
2017-10-18T05:39:13.961Z,20.00
2017-10-18T05:40:13.935Z,20.00
2017-10-18T05:41:13.919Z,24.00
2017-10-18T05:42:13.901Z,28.00
2017-10-18T05:43:13.881Z,32.00
2017-10-18T05:44:13.868Z,36.00
2017-10-18T05:45:13.841Z,40.00
2017-10-18T05:46:13.824Z,44.00
2017-10-18T05:47:13.808Z,48.00
2017-10-18T05:48:13.784Z,56.00
2017-10-18T05:49:13.770Z,56.00
2017-10-18T05:50:13.744Z,64.00
2017-10-18T05:51:13.729Z,68.00
2017-10-18T05:52:14.196Z,72.00
2017-10-18T05:53:13.690Z,80.00
2017-10-18T05:54:13.681Z,84.00
2017-10-18T05:55:13.646Z,92.00
2017-10-18T05:56:13.624Z,100.00
2017-10-18T05:57:13.604Z,108.00
2017-10-18T05:58:13.590Z,116.00
2017-10-18T05:59:13.571Z,120.00
2017-10-18T06:00:13.554Z,128.00
2017-10-18T06:01:13.525Z,136.00
2017-10-18T06:02:13.510Z,148.00
2017-10-18T06:03:13.485Z,152.00
2017-10-18T06:04:13.469Z,164.00
2017-10-18T06:05:13.447Z,172.00
2017-10-18T06:06:13.426Z,184.00
2017-10-18T06:07:13.408Z,108.00
2017-10-18T06:08:13.389Z,112.00
2017-10-18T06:09:13.366Z,112.00
2017-10-18T06:10:13.351Z,120.00
2017-10-18T06:11:13.338Z,132.00
2017-10-18T06:12:13.313Z,140.00
2017-10-18T06:13:13.302Z,140.00
2017-10-18T06:14:13.266Z,144.00
2017-10-18T06:15:13.239Z,148.00
2017-10-18T06:16:13.235Z,148.00
2017-10-18T06:17:13.207Z,148.00
2017-10-18T06:18:13.182Z,156.00
2017-10-18T06:19:13.165Z,160.00
2017-10-18T06:20:13.145Z,164.00
2017-10-18T06:21:13.127Z,168.00
2017-10-18T06:22:13.119Z,176.00
2017-10-18T06:23:13.080Z,180.00
2017-10-18T06:24:13.066Z,184.00
2017-10-18T06:25:13.046Z,200.00
2017-10-18T06:26:13.035Z,208.00
2017-10-18T06:27:13.005Z,220.00
2017-10-18T06:28:13.033Z,228.00
2017-10-18T06:29:12.978Z,220.00
2017-10-18T06:30:12.977Z,228.00
2017-10-18T06:31:12.927Z,236.00
2017-10-18T06:32:12.912Z,232.00
2017-10-18T06:33:12.886Z,248.00
2017-10-18T06:34:12.872Z,264.00
2017-10-18T06:35:12.853Z,284.00
2017-10-18T06:36:12.857Z,312.00
2017-10-18T06:37:12.806Z,324.00
2017-10-18T06:38:12.787Z,352.00
2017-10-18T06:39:12.775Z,364.00
2017-10-18T06:40:12.739Z,368.00
2017-10-18T06:41:12.731Z,364.00
2017-10-18T06:42:12.710Z,372.00
2017-10-18T06:43:12.708Z,388.00
2017-10-18T06:44:12.672Z,744.00
2017-10-18T06:45:12.642Z,812.00
2017-10-18T06:46:12.629Z,800.00
2017-10-18T06:47:12.606Z,796.00
2017-10-18T06:48:12.586Z,888.00
2017-10-18T06:49:12.566Z,968.00
2017-10-18T06:50:12.546Z,1028.00
2017-10-18T06:51:12.525Z,1056.00
2017-10-18T06:52:12.515Z,1168.00
2017-10-18T06:53:12.486Z,1200.00
2017-10-18T06:54:12.472Z,1332.00
2017-10-18T06:55:12.461Z,1408.00
2017-10-18T06:56:12.427Z,1340.00
2017-10-18T06:57:12.419Z,1344.00
2017-10-18T06:58:12.395Z,1380.00
2017-10-18T06:59:12.373Z,1384.00
2017-10-18T07:00:13.863Z,1420.00
2017-10-18T07:01:12.325Z,1604.00
2017-10-18T07:02:12.341Z,1748.00
2017-10-18T07:03:12.284Z,1908.00
2017-10-18T07:04:12.272Z,1920.00
2017-10-18T07:05:12.248Z,1904.00
2017-10-18T07:06:12.222Z,1876.00
2017-10-18T07:07:12.210Z,1888.00
2017-10-18T07:08:12.188Z,1940.00
2017-10-18T07:09:12.164Z,1928.00
2017-10-18T07:10:12.160Z,1912.00
2017-10-18T07:11:12.134Z,1872.00
2017-10-18T07:12:12.111Z,1852.00
2017-10-18T07:13:12.091Z,1884.00
2017-10-18T07:14:12.073Z,1956.00
2017-10-18T07:15:12.053Z,2064.00
2017-10-18T07:16:12.028Z,2132.00
2017-10-18T07:17:12.014Z,2240.00
2017-10-18T07:18:11.988Z,2292.00
2017-10-18T07:19:11.971Z,2064.00
2017-10-18T07:20:11.949Z,1924.00
2017-10-18T07:21:11.931Z,1912.00
2017-10-18T07:22:11.922Z,2028.00
2017-10-18T07:23:11.916Z,2096.00
2017-10-18T07:24:11.867Z,2132.00
2017-10-18T07:25:11.862Z,2264.00
2017-10-18T07:26:11.827Z,2324.00
2017-10-18T07:27:11.814Z,2376.00
2017-10-18T07:28:11.795Z,2384.00
2017-10-18T07:29:11.772Z,2128.00
2017-10-18T07:30:11.750Z,1904.00
2017-10-18T07:31:11.734Z,2164.00
2017-10-18T07:32:11.720Z,2144.00
2017-10-18T07:33:11.695Z,2312.00
2017-10-18T07:34:11.684Z,2324.00
2017-10-18T07:35:11.657Z,2660.00
2017-10-18T07:36:11.636Z,2696.00
2017-10-18T07:37:11.619Z,2528.00
2017-10-18T07:38:11.598Z,2688.00
2017-10-18T07:39:11.580Z,2720.00
2017-10-18T07:40:11.570Z,2692.00
2017-10-18T07:41:11.542Z,2568.00
2017-10-18T07:42:11.515Z,2580.00
2017-10-18T07:43:11.502Z,2676.00
2017-10-18T07:44:11.482Z,2824.00
2017-10-18T07:45:11.458Z,3084.00
2017-10-18T07:46:11.438Z,3232.00
2017-10-18T07:47:11.421Z,3284.00
2017-10-18T07:48:11.408Z,3320.00
2017-10-18T07:49:11.383Z,3352.00
2017-10-18T07:50:11.359Z,3484.00
2017-10-18T07:51:11.342Z,3508.00
2017-10-18T07:52:11.329Z,3368.00
2017-10-18T07:53:11.302Z,3384.00
2017-10-18T07:54:11.302Z,3380.00
2017-10-18T07:55:11.268Z,3448.00
2017-10-18T07:56:11.246Z,3332.00
2017-10-18T07:57:11.234Z,2852.00
2017-10-18T07:58:11.211Z,2732.00
2017-10-18T07:59:11.186Z,3400.00
2017-10-18T08:00:11.170Z,2964.00
2017-10-18T08:01:11.151Z,2140.00
2017-10-18T08:02:11.123Z,3564.00
2017-10-18T08:03:11.108Z,4168.00
2017-10-18T08:04:11.087Z,4204.00
2017-10-18T08:05:11.073Z,4088.00
2017-10-18T08:06:11.059Z,4544.00
2017-10-18T08:07:11.035Z,4592.00
2017-10-18T08:08:11.012Z,4040.00
2017-10-18T08:09:10.993Z,4248.00
2017-10-18T08:10:10.975Z,4604.00
2017-10-18T08:11:10.971Z,4912.00
2017-10-18T08:12:10.936Z,5260.00
2017-10-18T08:13:10.978Z,5164.00
2017-10-18T08:14:10.901Z,5104.00
2017-10-18T08:15:10.878Z,4848.00
2017-10-18T08:16:10.859Z,4392.00
2017-10-18T08:17:10.845Z,4612.00
2017-10-18T08:18:10.831Z,5200.00
2017-10-18T08:19:10.805Z,5284.00
2017-10-18T08:20:10.782Z,5780.00
2017-10-18T08:21:10.768Z,5860.00
2017-10-18T08:22:10.744Z,5716.00
2017-10-18T08:23:10.785Z,5756.00
2017-10-18T08:24:10.741Z,5924.00
2017-10-18T08:25:10.704Z,6180.00
2017-10-18T08:26:10.675Z,6620.00
2017-10-18T08:27:10.662Z,5528.00
2017-10-18T08:28:10.631Z,6360.00
2017-10-18T08:29:10.614Z,6068.00
2017-10-18T08:30:10.609Z,5884.00
2017-10-18T08:31:10.573Z,5956.00
2017-10-18T08:32:10.558Z,6468.00
2017-10-18T08:33:10.537Z,6876.00
2017-10-18T08:34:10.525Z,6744.00
2017-10-18T08:35:10.504Z,6428.00
2017-10-18T08:36:10.483Z,6680.00
2017-10-18T08:37:10.465Z,6744.00
2017-10-18T08:38:10.448Z,6896.00
2017-10-18T08:39:10.428Z,6048.00
2017-10-18T08:40:10.402Z,6008.00
2017-10-18T08:41:10.391Z,5688.00
2017-10-18T08:42:10.373Z,5840.00
2017-10-18T08:43:10.356Z,5656.00
2017-10-18T08:44:10.338Z,5972.00
2017-10-18T08:45:10.318Z,6140.00
2017-10-18T08:46:10.305Z,6360.00
2017-10-18T08:47:10.283Z,6752.00
2017-10-18T08:48:10.270Z,7084.00
2017-10-18T08:49:10.245Z,6632.00
2017-10-18T08:50:10.227Z,6016.00
2017-10-18T08:51:10.211Z,5776.00
2017-10-18T08:52:10.197Z,6496.00
2017-10-18T08:53:10.172Z,6956.00
2017-10-18T08:54:10.153Z,6812.00
2017-10-18T08:55:10.128Z,6792.00
2017-10-18T08:56:10.117Z,6952.00
2017-10-18T08:57:10.109Z,7276.00
2017-10-18T08:58:10.085Z,7676.00
2017-10-18T08:59:10.061Z,7408.00
2017-10-18T09:00:12.649Z,7688.00
2017-10-18T09:01:10.031Z,7736.00
2017-10-18T09:02:10.014Z,7628.00
2017-10-18T09:03:09.987Z,7152.00
2017-10-18T09:04:09.967Z,6016.00
2017-10-18T09:05:09.956Z,7800.00
2017-10-18T09:06:09.936Z,9008.00
2017-10-18T09:07:09.919Z,9780.00
2017-10-18T09:08:09.908Z,11052.00
2017-10-18T09:09:09.880Z,9832.00
2017-10-18T09:10:09.871Z,12004.00
2017-10-18T09:11:09.854Z,11368.00
2017-10-18T09:12:09.841Z,11896.00
2017-10-18T09:13:09.815Z,11716.00
2017-10-18T09:14:09.797Z,13192.00
2017-10-18T09:15:09.775Z,12288.00
2017-10-18T09:16:09.756Z,11928.00
2017-10-18T09:17:09.739Z,10788.00
2017-10-18T09:18:09.721Z,12588.00
2017-10-18T09:19:09.701Z,11944.00
2017-10-18T09:20:09.684Z,10276.00
2017-10-18T09:21:09.660Z,10324.00
2017-10-18T09:22:09.646Z,10368.00
2017-10-18T09:23:09.621Z,10156.00
2017-10-18T09:24:09.614Z,9516.00
2017-10-18T09:25:09.593Z,8688.00
2017-10-18T09:26:09.590Z,8936.00
2017-10-18T09:27:09.566Z,10112.00
2017-10-18T09:28:09.539Z,11332.00
2017-10-18T09:29:09.530Z,11256.00
2017-10-18T09:30:09.517Z,12476.00
2017-10-18T09:31:09.495Z,11888.00
2017-10-18T09:32:09.469Z,11264.00
2017-10-18T09:33:09.492Z,10860.00
2017-10-18T09:34:09.441Z,11924.00
2017-10-18T09:35:09.418Z,10608.00
2017-10-18T09:36:09.406Z,11036.00
2017-10-18T09:37:09.380Z,12276.00
2017-10-18T09:38:09.388Z,15360.00
2017-10-18T09:39:09.350Z,16288.00
2017-10-18T09:40:09.336Z,16736.00
2017-10-18T09:41:09.317Z,20544.00
2017-10-18T09:42:09.299Z,26688.00
2017-10-18T09:43:09.283Z,30016.00
2017-10-18T09:44:09.271Z,29184.00
2017-10-18T09:45:09.254Z,27872.00
2017-10-18T09:46:09.238Z,26016.00
2017-10-18T09:47:09.224Z,32896.00
2017-10-18T09:48:09.194Z,26144.00
2017-10-18T09:49:09.185Z,28096.00
2017-10-18T09:50:09.172Z,23200.00
2017-10-18T09:51:09.150Z,24672.00
2017-10-18T09:52:09.137Z,26624.00
2017-10-18T09:53:09.125Z,24672.00
2017-10-18T09:54:09.122Z,23488.00
2017-10-18T09:55:09.105Z,23680.00
2017-10-18T09:56:09.075Z,23808.00
2017-10-18T09:57:09.058Z,23552.00
2017-10-18T09:58:09.056Z,22816.00
2017-10-18T09:59:09.034Z,18848.00
2017-10-18T10:00:09.011Z,18496.00
2017-10-18T10:01:08.998Z,24608.00
2017-10-18T10:02:09.008Z,36608.00
2017-10-18T10:03:08.965Z,35840.00
2017-10-18T10:04:08.965Z,39360.00
2017-10-18T10:05:08.949Z,45792.00
2017-10-18T10:06:08.932Z,50144.00
2017-10-18T10:07:08.912Z,48608.00
2017-10-18T10:08:08.891Z,50912.00
2017-10-18T10:09:08.890Z,55392.00
2017-10-18T10:10:08.885Z,52576.00
2017-10-18T10:11:08.858Z,59360.00
2017-10-18T10:12:08.858Z,62240.00
2017-10-18T10:13:08.827Z,66208.00
2017-10-18T10:14:08.820Z,63232.00
2017-10-18T10:15:08.805Z,60512.00
2017-10-18T10:16:08.807Z,60416.00
2017-10-18T10:17:08.782Z,64224.00
2017-10-18T10:18:08.770Z,65280.00
2017-10-18T10:19:08.764Z,62528.00
2017-10-18T10:20:08.754Z,58272.00
2017-10-18T10:21:08.745Z,59552.00
2017-10-18T10:22:08.741Z,57152.00
2017-10-18T10:23:08.761Z,55872.00
2017-10-18T10:24:08.714Z,46752.00
2017-10-18T10:25:08.709Z,47456.00
2017-10-18T10:26:08.688Z,55872.00
2017-10-18T10:27:08.683Z,55232.00
2017-10-18T10:28:08.685Z,56256.00
2017-10-18T10:29:08.675Z,53600.00
2017-10-18T10:30:08.670Z,38400.00
2017-10-18T10:31:08.658Z,42784.00
2017-10-18T10:32:08.663Z,33280.00
2017-10-18T10:33:08.646Z,33504.00
2017-10-18T10:34:08.632Z,36640.00
2017-10-18T10:35:08.639Z,48352.00
2017-10-18T10:36:08.617Z,52576.00
2017-10-18T10:37:08.611Z,52032.00
2017-10-18T10:38:08.602Z,32576.00
2017-10-18T10:39:08.597Z,18688.00
2017-10-18T10:40:08.578Z,18080.00
2017-10-18T10:41:08.577Z,17376.00
2017-10-18T10:42:08.578Z,16096.00
2017-10-18T10:43:08.562Z,15200.00
2017-10-18T10:44:08.555Z,14012.00
2017-10-18T10:45:08.545Z,13540.00
2017-10-18T10:46:08.572Z,12428.00
2017-10-18T10:47:08.534Z,11412.00
2017-10-18T10:48:09.389Z,11648.00
2017-10-18T10:49:08.510Z,12056.00
2017-10-18T10:50:08.506Z,12248.00
2017-10-18T10:51:08.503Z,12140.00
2017-10-18T10:52:08.507Z,11912.00
2017-10-18T10:53:08.498Z,11780.00
2017-10-18T10:54:08.468Z,12032.00
2017-10-18T10:55:08.497Z,11688.00
2017-10-18T10:56:08.463Z,11800.00
2017-10-18T10:57:08.452Z,11940.00
2017-10-18T10:58:08.446Z,11944.00
2017-10-18T10:59:08.434Z,10812.00
2017-10-18T11:00:08.433Z,9804.00
2017-10-18T11:01:08.423Z,9888.00
2017-10-18T11:02:08.422Z,10680.00
2017-10-18T11:03:08.403Z,13272.00
2017-10-18T11:04:08.405Z,16768.00
2017-10-18T11:05:08.395Z,20864.00
2017-10-18T11:06:08.421Z,31680.00
2017-10-18T11:07:08.375Z,32224.00
2017-10-18T11:08:08.365Z,32928.00
2017-10-18T11:09:08.356Z,28992.00
2017-10-18T11:10:08.352Z,33152.00
2017-10-18T11:11:08.349Z,36864.00
2017-10-18T11:12:08.327Z,37760.00
2017-10-18T11:13:08.324Z,38240.00
2017-10-18T11:14:08.315Z,45728.00
2017-10-18T11:15:08.308Z,48288.00
2017-10-18T11:16:08.305Z,45728.00
2017-10-18T11:17:08.290Z,48160.00
2017-10-18T11:18:08.285Z,32576.00
2017-10-18T11:19:08.270Z,39840.00
2017-10-18T11:20:08.263Z,38368.00
2017-10-18T11:21:08.263Z,33120.00
2017-10-18T11:22:08.247Z,34304.00
2017-10-18T11:23:08.251Z,22752.00
2017-10-18T11:24:08.231Z,14912.00
2017-10-18T11:25:08.223Z,13120.00
2017-10-18T11:26:08.212Z,12052.00
2017-10-18T11:27:08.201Z,11684.00
2017-10-18T11:28:08.199Z,11256.00
2017-10-18T11:29:08.186Z,10968.00
2017-10-18T11:30:08.222Z,10188.00
2017-10-18T11:31:08.163Z,9852.00
2017-10-18T11:32:08.161Z,9040.00
2017-10-18T11:33:08.153Z,9560.00
2017-10-18T11:34:08.149Z,9136.00
2017-10-18T11:35:08.136Z,8808.00
2017-10-18T11:36:08.124Z,8436.00
2017-10-18T11:37:08.121Z,7968.00
2017-10-18T11:38:08.112Z,7732.00
2017-10-18T11:39:08.101Z,7436.00
2017-10-18T11:40:08.092Z,7900.00
2017-10-18T11:41:08.089Z,7848.00
2017-10-18T11:42:08.116Z,7680.00
2017-10-18T11:43:08.081Z,7332.00
2017-10-18T11:44:08.066Z,7216.00
2017-10-18T11:45:08.096Z,7160.00
2017-10-18T11:46:08.059Z,6820.00
2017-10-18T11:47:08.049Z,6340.00
2017-10-18T11:48:08.044Z,6616.00
2017-10-18T11:49:08.038Z,6600.00
2017-10-18T11:50:08.030Z,6416.00
2017-10-18T11:51:08.065Z,6148.00
2017-10-18T11:52:08.020Z,6140.00
2017-10-18T11:53:08.014Z,6160.00
2017-10-18T11:54:08.026Z,6208.00
2017-10-18T11:55:08.003Z,6048.00
2017-10-18T11:56:08.002Z,5828.00
2017-10-18T11:57:07.980Z,6052.00
2017-10-18T11:58:07.980Z,6008.00
2017-10-18T11:59:08.729Z,5920.00
2017-10-18T12:00:07.962Z,5832.00
2017-10-18T12:01:07.963Z,5796.00
2017-10-18T12:02:07.960Z,5752.00
2017-10-18T12:03:07.935Z,5648.00
2017-10-18T12:04:07.935Z,5536.00
2017-10-18T12:05:07.925Z,5428.00
2017-10-18T12:06:07.926Z,5304.00
2017-10-18T12:07:07.910Z,5184.00
2017-10-18T12:08:07.902Z,5104.00
2017-10-18T12:09:07.897Z,5064.00
2017-10-18T12:10:07.885Z,5004.00
2017-10-18T12:11:07.879Z,4892.00
2017-10-18T12:12:07.867Z,4748.00
2017-10-18T12:13:07.872Z,4672.00
2017-10-18T12:14:07.865Z,4624.00
2017-10-18T12:15:07.848Z,4536.00
2017-10-18T12:16:07.838Z,4460.00
2017-10-18T12:17:07.837Z,4444.00
2017-10-18T12:18:07.818Z,4412.00
2017-10-18T12:19:07.817Z,4404.00
2017-10-18T12:20:07.805Z,4348.00
2017-10-18T12:21:07.797Z,4360.00
2017-10-18T12:22:07.791Z,4340.00
2017-10-18T12:23:07.782Z,4320.00
2017-10-18T12:24:07.770Z,4284.00
2017-10-18T12:25:07.765Z,4252.00
2017-10-18T12:26:07.757Z,4252.00
2017-10-18T12:27:07.744Z,4160.00
2017-10-18T12:28:07.741Z,4124.00
2017-10-18T12:29:07.736Z,4088.00
2017-10-18T12:30:07.720Z,4060.00
2017-10-18T12:31:07.733Z,4044.00
2017-10-18T12:32:07.707Z,4016.00
2017-10-18T12:33:07.697Z,4008.00
2017-10-18T12:34:07.742Z,3988.00